KBMT/BMT METAR and TAF weather

Enter ICAO airport designator
Station Type Date Time Source
KBMT METAR 2019/05/23 19:15 UTC NOAA

KBMT 231915Z AUTO 14012G19KT 10SM BKN029 OVC035 30/23 A3006 RMK AO2 T03040226


Station Type Date Time Source
KBMT Decoded METAR 2019/05/23 19:15 UTC NOAA

Station name not available
May 23, 2019 - 03:15 PM EDT / 2019.05.23 1915 UTC
Wind: from the SE (140 degrees) at 14 MPH (12 KT) gusting to 22 MPH (19 KT):0
Visibility: 10 mile(s):0
Sky conditions: overcast
Temperature: 86.7 F (30.4 C)
Heat index: 93.7 F (34.3 C):1
Dew Point: 72.7 F (22.6 C)
Relative Humidity: 63%
Pressure (altimeter): 30.06 in. Hg (1017 hPa)
ob: KBMT 231915Z AUTO 14012G19KT 10SM BKN029 OVC035 30/23 A3006 RMK AO2 T03040226
cycle: 19

Station Type Date Time Source
KBMT TAF UTC NOAA

Error!

Example: see airport list